Flight Track Log - Related Links

Times and Time Zones

All times are in EST time to prevent confusion due to time zone crossing. See the JBU601 flight status page for this flight to view local times or setup timezone preferences in your user account.

Time Position Orientation Groundspeed Altitude Reporting Facility
EST Latitude Longitude Course Direction KTS MPH feet Rate Location/Type
Thu 06:29:57 AM 40.6333 -73.8667 223° Southwest 202 232 2,400  Level New York TRACON
Thu 06:31:00 AM 40.3815 -73.5315 143° Southeast  Level FlightAware Approximate
Thu 06:31:55 AM 40.5356 -73.7911 150° Southeast 264 304 6,900  Level New York Center
Thu 06:32:00 AM 40.3052 -73.4553 143° Southeast  Level FlightAware Approximate
Thu 06:32:55 AM 40.4983 -73.7022 119° Southeast 279 321 8,900  Level New York Center
Thu 06:33:00 AM 40.2246 -73.3755 146° Southeast  Level FlightAware Approximate
Thu 06:33:55 AM 40.4336 -73.6178 135° Southeast 284 327 11,400  Level New York Center
Thu 06:34:00 AM 40.1383 -73.2988 146° Southeast  Level FlightAware Approximate
Thu 06:34:55 AM 40.3667 -73.5469 141° Southeast 328 377 12,100  Level New York Center
Thu 06:35:00 AM 40.0555 -73.2834 223° Southwest  Level FlightAware Approximate
Thu 06:35:55 AM 40.2606 -73.5344 175° South 343 395 14,500  Level New York Center
Thu 06:36:55 AM 40.1669 -73.5253 176° South 363 418 16,300 1,680 Climbing New York Center
Thu 06:38:50 AM 39.9969 -73.6064 200° South 365 420 19,400 1,577 Climbing Washington Center
Thu 06:39:50 AM 39.9061 -73.6550 202° Southwest 365 420 20,900 1,537 Climbing Washington Center
Thu 06:40:51 AM 39.8089 -73.6981 199° South 365 420 22,500 1,563 Climbing Washington Center
Thu 06:41:49 AM 39.7158 -73.7436 201° Southwest 365 420 24,000 1,210 Climbing Washington Center
Thu 06:42:50 AM 39.6208 -73.7919 201° Southwest 370 426 24,900 1,091 Climbing Washington Center
Thu 06:43:50 AM 39.5406 -73.8719 218° Southwest 364 419 26,200 1,300 Climbing Washington Center
Thu 06:44:50 AM 39.4689 -73.9569 222° Southwest 358 412 27,500 1,008 Climbing Washington Center
Thu 06:45:49 AM 39.3928 -74.0394 220° Southwest 358 412 28,200 864 Climbing Washington Center
Thu 06:46:48 AM 39.3189 -74.1214 221° Southwest 358 412 29,200 1,140 Climbing Washington Center
Thu 06:47:50 AM 39.2428 -74.2033 220° Southwest 358 412 30,500 1,171 Climbing Washington Center
Thu 06:48:51 AM 39.1667 -74.2853 220° Southwest 358 412 31,600 1,140 Climbing Washington Center
Thu 06:49:51 AM 39.0967 -74.3639 221° Southwest 358 412 32,800 1,179 Climbing Washington Center
Thu 06:50:48 AM 39.0244 -74.4375 218° Southwest 345 397 33,900 615 Climbing Washington Center
Thu 06:51:48 AM 38.9583 -74.5131 222° Southwest 332 382 34,000 49 Climbing Washington Center
Thu 06:52:50 AM 38.8881 -74.5861 219° Southwest 332 382 34,000 -49 Level Washington Center
Thu 06:53:50 AM 38.8178 -74.6617 220° Southwest 332 382 33,900 -50 Descending Washington Center
Thu 06:54:51 AM 38.7475 -74.7372 220° Southwest 337 388 33,900 50 Level Washington Center
Thu 06:55:49 AM 38.6750 -74.8125 219° Southwest 337 388 34,000  Climbing Washington Center
Thu 06:56:50 AM 38.6047 -74.8931 222° Southwest 337 388 33,900 -49 Descending Washington Center
Thu 06:57:51 AM 38.5322 -74.9653 218° Southwest 332 382 33,900 50 Level Washington Center
Thu 06:58:49 AM 38.4617 -75.0428 221° Southwest 332 382 34,000 51 Climbing Washington Center
Thu 06:59:49 AM 38.3911 -75.1175 220° Southwest 332 382 34,000  Level Washington Center
Thu 07:00:49 AM 38.3039 -75.1894 213° Southwest 338 389 34,000 -50 Level Washington Center
Thu 07:01:48 AM 38.2164 -75.2508 209° Southwest 350 403 33,900 -50 Descending Washington Center
Thu 07:02:49 AM 38.1331 -75.3119 210° Southwest 355 409 33,900  Level Washington Center
Thu 07:03:50 AM 38.0456 -75.3728 209° Southwest 355 409 33,900 49 Level Washington Center
Thu 07:04:51 AM 37.9625 -75.4364 211° Southwest 355 409 34,000 51 Climbing Washington Center
Thu 07:05:48 AM 37.8750 -75.4972 209° Southwest 355 409 34,000  Level Washington Center
Thu 07:06:50 AM 37.7894 -75.5603 210° Southwest 355 409 34,000  Level Washington Center
Thu 07:07:50 AM 37.7017 -75.6206 209° Southwest 355 409 34,000 -50 Level Washington Center
Thu 07:08:50 AM 37.6142 -75.6808 209° Southwest 360 414 33,900 -50 Descending Washington Center
Thu 07:09:49 AM 37.5264 -75.7411 209° Southwest 360 414 33,900 50 Level Washington Center
Thu 07:10:50 AM 37.4389 -75.8036 210° Southwest 360 414 34,000 49 Climbing Washington Center
Thu 07:11:51 AM 37.3531 -75.8636 209° Southwest 355 409 34,000  Level Washington Center
Thu 07:12:49 AM 37.2656 -75.9258 210° Southwest 355 409 34,000 -51 Level Washington Center
Thu 07:13:49 AM 37.1756 -75.9881 209° Southwest 355 409 33,900 -50 Descending Washington Center
Thu 07:14:50 AM 37.0814 -76.0397 204° Southwest 361 415 33,900 50 Level Washington Center
Thu 07:15:50 AM 36.9853 -76.0886 202° Southwest 367 422 34,000 50 Climbing Washington Center
Thu 07:16:51 AM 36.8914 -76.1242 197° South 389 448 34,000  Level Washington Center
Thu 07:17:51 AM 36.7908 -76.1728 201° Southwest 389 448 34,000  Level Washington Center
Thu 07:18:48 AM 36.6947 -76.2239 203° Southwest 389 448 34,000 -51 Level Washington Center
Thu 07:19:49 AM 36.5964 -76.2697 201° Southwest 389 448 33,900 -50 Descending Washington Center
Thu 07:20:49 AM 36.4981 -76.3153 200° South 389 448 33,900 50 Level Washington Center
Thu 07:21:50 AM 36.3997 -76.3608 200° South 389 448 34,000 49 Climbing Washington Center
Thu 07:22:51 AM 36.2992 -76.4089 201° Southwest 389 448 34,000 -50 Level Washington Center
Thu 07:23:49 AM 36.1989 -76.4569 201° Southwest 389 448 33,900  Descending Washington Center
Thu 07:24:50 AM 36.0983 -76.5044 201° Southwest 389 448 34,000  Climbing Washington Center
Thu 07:25:51 AM 36.0000 -76.5497 200° South 389 448 33,900 -51 Descending Washington Center
Thu 07:26:48 AM 35.8972 -76.5972 201° Southwest 389 448 33,900  Level Washington Center
Thu 07:27:50 AM 35.7989 -76.6472 202° Southwest 389 448 33,900  Level Washington Center
Thu 07:28:49 AM 35.6942 -76.6892 198° South 389 448 33,900 50 Level Washington Center
Thu 07:29:50 AM 35.5933 -76.7389 202° Southwest 394 453 34,000 49 Climbing Washington Center
Thu 07:30:51 AM 35.4908 -76.7833 199° South 394 453 34,000  Level Washington Center
Thu 07:31:51 AM 35.3817 -76.8378 202° Southwest 389 448 34,000  Level Washington Center
Thu 07:32:49 AM 35.2789 -76.8847 200° South 389 448 34,000  Level Washington Center
Thu 07:33:50 AM 35.1764 -76.9311 200° South 389 448 34,000  Level Washington Center
Thu 07:34:50 AM 35.0861 -76.9753 202° Southwest 389 448 34,000  Level Washington Center
Thu 07:35:49 AM 34.9875 -77.0219 201° Southwest 389 448 34,000 -50 Level Washington Center
Thu 07:36:50 AM 34.8825 -77.0681 200° South 389 448 33,900 -49 Descending Washington Center
Thu 07:37:51 AM 34.7797 -77.1144 200° South 389 448 33,900 50 Level Washington Center
Thu 07:38:51 AM 34.6769 -77.1631 201° Southwest 395 455 34,000 51 Climbing Washington Center
Thu 07:39:49 AM 34.5739 -77.2089 200° South 395 455 34,000 -39 Level Washington Center
Thu 07:41:23 AM 34.4003 -77.2861 200° South 402 463 33,900 -39 Descending Jacksonville Center
Thu 07:42:23 AM 34.2958 -77.3331 200° South 402 463 33,900  Level Jacksonville Center
Thu 07:43:23 AM 34.1956 -77.3772 200° South 402 463 33,900 50 Level Jacksonville Center
Thu 07:44:23 AM 34.0894 -77.4267 201° Southwest 402 463 34,000  Climbing Jacksonville Center
Thu 07:45:23 AM 33.9847 -77.4706 199° South 402 463 33,900  Descending Jacksonville Center
Thu 07:46:23 AM 33.8928 -77.5139 201° Southwest 402 463 34,000 50 Climbing Jacksonville Center
Thu 07:47:23 AM 33.7864 -77.5603 200° South 402 463 34,000  Level Jacksonville Center
Thu 07:48:23 AM 33.6817 -77.6042 199° South 402 463 34,000  Level Jacksonville Center
Thu 07:49:23 AM 33.5669 -77.6558 201° Southwest 402 463 34,000 -50 Level Jacksonville Center
Thu 07:50:23 AM 33.4647 -77.7017 201° Southwest 402 463 33,900 -50 Descending Jacksonville Center
Thu 07:51:23 AM 33.3600 -77.7475 200° South 402 463 33,900 50 Level Jacksonville Center
Thu 07:52:23 AM 33.2533 -77.7936 200° South 402 463 34,000 50 Climbing Jacksonville Center
Thu 07:53:23 AM 33.1489 -77.8417 201° Southwest 402 463 34,000  Level Jacksonville Center
Thu 07:54:23 AM 33.0444 -77.8872 200° South 402 463 34,000  Level Jacksonville Center
Thu 07:55:23 AM 32.9375 -77.9303 199° South 402 463 34,000  Level Jacksonville Center
Thu 07:56:23 AM 32.8331 -77.9781 201° Southwest 402 463 34,000 -50 Level Jacksonville Center
Thu 07:57:23 AM 32.7261 -78.0208 199° South 402 463 33,900 -50 Descending Jacksonville Center
Thu 07:58:23 AM 32.6194 -78.0686 201° Southwest 402 463 33,900 50 Level Jacksonville Center
Thu 07:59:23 AM 32.5128 -78.1161 201° Southwest 402 463 34,000  Climbing Jacksonville Center
Thu 08:00:23 AM 32.4081 -78.1608 200° South 402 463 33,900  Descending Jacksonville Center
Thu 08:01:23 AM 32.3011 -78.2083 201° Southwest 402 463 34,000 50 Climbing Jacksonville Center
Thu 08:02:23 AM 32.1922 -78.2556 200° South 408 470 34,000  Level Jacksonville Center
Thu 08:03:23 AM 32.0833 -78.3053 201° Southwest 408 470 34,000  Level Jacksonville Center
Thu 08:04:23 AM 31.9786 -78.3472 199° South 408 470 34,000  Level Jacksonville Center
Thu 08:05:23 AM 31.8675 -78.3967 201° Southwest 408 470 34,000  Level Jacksonville Center
Thu 08:06:23 AM 31.7625 -78.4383 199° South 413 475 34,000 -50 Level Jacksonville Center
Thu 08:07:23 AM 31.6536 -78.4850 200° South 413 475 33,900 -50 Descending Jacksonville Center
Thu 08:08:23 AM 31.5444 -78.5317 200° South 413 475 33,900  Level Jacksonville Center
Thu 08:09:23 AM 31.4397 -78.5756 200° South 413 475 33,900  Level Jacksonville Center
Thu 08:10:23 AM 31.3306 -78.6244 201° Southwest 413 475 33,900 50 Level Jacksonville Center
Thu 08:11:23 AM 31.2256 -78.6631 197° South 413 475 34,000 50 Climbing Jacksonville Center
Thu 08:12:23 AM 31.1164 -78.7117 201° Southwest 413 475 34,000 -50 Level Jacksonville Center
Thu 08:13:23 AM 31.0072 -78.7553 199° South 418 481 33,900  Descending Jacksonville Center
Thu 08:14:23 AM 30.8958 -78.7989 199° South 424 488 34,000 50 Climbing Jacksonville Center
Thu 08:15:23 AM 30.7953 -78.8469 202° Southwest 417 480 34,000 -50 Level Jacksonville Center
Thu 08:16:23 AM 30.6836 -78.8878 197° South 411 473 33,900 -50 Descending Jacksonville Center
Thu 08:17:23 AM 30.5725 -78.9358 200° South 411 473 33,900  Level Jacksonville Center
Thu 08:18:50 AM 30.4247 -78.9986 200° South 419 482 33,900 41 Level Miami Center
Thu 08:19:50 AM 30.3328 -79.0208 192° South 419 482 34,000 50 Climbing Miami Center
Thu 08:20:50 AM 30.1883 -79.0564 192° South 427 491 34,000 -50 Level Miami Center
Thu 08:21:50 AM 30.0794 -79.0853 193° South 427 491 33,900  Descending Miami Center
Thu 08:22:50 AM 29.9622 -79.1211 195° South 427 491 34,000 50 Climbing Miami Center
Thu 08:23:50 AM 29.8492 -79.1497 192° South 427 491 34,000  Level Miami Center
Thu 08:24:50 AM 29.7319 -79.1783 192° South 427 491 34,000  Level Miami Center
Thu 08:25:50 AM 29.6189 -79.2094 193° South 427 491 34,000  Level Miami Center
Thu 08:26:50 AM 29.5036 -79.2378 192° South 432 497 34,000  Level Miami Center
Thu 08:27:50 AM 29.3883 -79.2686 193° South 432 497 34,000  Level Miami Center
Thu 08:28:50 AM 29.2711 -79.2947 191° South 432 497 34,000  Level Miami Center
Thu 08:29:50 AM 29.1539 -79.3206 191° South 432 497 34,000  Level Miami Center
Thu 08:30:50 AM 29.0406 -79.3514 193° South 427 491 34,000  Level Miami Center
Thu 08:31:50 AM 28.9256 -79.3797 192° South 427 491 34,000  Level Miami Center
Thu 08:32:50 AM 28.8103 -79.4100 193° South 432 497 34,000  Level Miami Center
Thu 08:33:50 AM 28.6969 -79.4383 192° South 432 497 34,000  Level Miami Center
Thu 08:34:50 AM 28.5817 -79.4664 192° South 427 491 34,000  Level Miami Center
Thu 08:35:50 AM 28.4664 -79.4944 192° South 433 498 34,000  Level Miami Center
Thu 08:36:50 AM 28.3511 -79.5247 193° South 433 498 34,000  Level Miami Center
Thu 08:37:50 AM 28.2336 -79.5525 192° South 433 498 34,000  Level Miami Center
Thu 08:38:50 AM 28.1183 -79.5803 192° South 433 498 34,000 -100 Level Miami Center
Thu 08:39:50 AM 28.0050 -79.6083 192° South 433 498 33,800 -900 Descending Miami Center
Thu 08:40:50 AM 27.8897 -79.6383 193° South 433 498 32,200 -1,650 Descending Miami Center
Thu 08:41:50 AM 27.7744 -79.6636 191° South 427 491 30,500 -1,650 Descending Miami Center
Thu 08:42:50 AM 27.6717 -79.6869 191° South 427 491 28,900 -1,600 Descending Miami Center
Thu 08:43:50 AM 27.5583 -79.7147 192° South 427 491 27,300 -1,850 Descending Miami Center
Thu 08:44:50 AM 27.4367 -79.7444 192° South 411 473 25,200 -1,650 Descending Miami Center
Thu 08:45:50 AM 27.3236 -79.7581 186° South 411 473 24,000 -750 Descending Miami Center
Thu 08:46:50 AM 27.2111 -79.7458 174° South 411 473 23,700 -1,300 Descending Miami Center
Thu 08:47:50 AM 27.1136 -79.7153 164° South 406 467 21,400 -2,450 Descending Miami Center
Thu 08:48:50 AM 27.0014 -79.6822 165° South 406 467 18,800 -2,850 Descending Miami Center
Thu 08:49:50 AM 26.8808 -79.6467 165° South 413 475 15,700 -1,850 Descending Miami Center
Thu 08:50:50 AM 26.7781 -79.6700 191° South 390 449 15,100 -513 Descending Miami Center
Thu 08:51:47 AM 26.6958 -79.7097 203° Southwest 312 359 14,700 -200 Descending Miami Center
Thu 08:51:50 AM 26.7044 -79.7053 25° Northeast 352 405 14,900 -1,964 Climbing Miami Center
Thu 08:52:42 AM 26.6222 -79.7453 204° Southwest 308 354 12,900 -2,000 Descending Miami Center
Thu 08:52:50 AM 26.6158 -79.7475 197° South 322 371 12,900 -2,066 Level Miami Center
Thu 08:53:43 AM 26.5483 -79.7828 205° Southwest 301 346 10,800 -2,000 Descending Miami Center
Thu 08:53:50 AM 26.5483 -79.7806 90° East 312 359 10,900 -2,361 Climbing Miami Center
Thu 08:54:44 AM 26.4722 -79.8181 204° Southwest 285 328 8,400 -2,500 Descending Miami Center
Thu 08:54:50 AM 26.4661 -79.8203 198° South 295 339 8,400 -269 Level Miami Center
Thu 08:55:51 AM 26.3881 -79.8556 202° Southwest 281 323 8,100 -250 Descending Miami Center
Thu 08:56:50 AM 26.3306 -79.9050 218° Southwest 285 328 7,900 -448 Descending Miami Center
Thu 08:56:58 AM 26.3242 -79.9164 238° Southwest 280 322 7,600 -1,500 Descending Miami Center
Thu 08:57:50 AM 26.2794 -79.9569 219° Southwest 285 328 6,400 -1,527 Descending Miami Center
Thu 08:57:53 AM 26.2708 -79.9683 230° Southwest 278 320 6,200 -400 Descending Miami Center
Thu 08:58:50 AM 26.2239 -80.0133 221° Southwest 280 322 6,000 -197 Descending Miami Center
Thu 08:58:54 AM 26.2133 -80.0200 210° Southwest 277 319 6,000  Level Miami Center
Thu 08:59:50 AM 26.1725 -80.0653 225° Southwest 273 314 6,000 97 Level Miami Center
Thu 08:59:56 AM 26.1681 -80.0861 257° West 238 274 6,100  Climbing Miami Center
Thu 09:00:50 AM 26.1542 -80.1389 254° West 252 290 6,000 -100 Descending Miami Center
Thu 09:00:56 AM 26.1475 -80.1547 245° Southwest 233 268 6,000 -794 Level Miami Center
Thu 09:01:58 AM 26.1481 -80.2289 270° West 243 280 5,100 -927 Descending Miami Center
Thu 09:02:59 AM 26.1483 -80.3006 270° West 235 270 4,100 -469 Descending Miami Center
Thu 09:04:06 AM 26.1444 -80.3769 267° West 211 243 4,100  Level Miami Center
Thu 09:05:01 AM 26.1472 -80.4372 273° West 209 241 4,100  Level Miami Center
Thu 09:06:02 AM 26.1108 -80.4708 220° Southwest 202 232 4,100  Level Miami Center
Thu 09:07:09 AM 26.0767 -80.4211 127° Southeast 186 214 4,100 -244 Level Miami Center
Thu 09:08:05 AM 26.0736 -80.3725 94° East 179 206 3,600 -821 Descending Miami Center
Thu 09:09:06 AM 26.0750 -80.3147 88° East 179 206 2,500 -984 Descending Miami Center
Thu 09:10:07 AM 26.0742 -80.2617 91° East 164 189 1,600 -776 Descending Miami Center
Thu 09:11:02 AM 26.0753 -80.2200 88° East 133 153 1,000 -655 Descending Miami Center
Thu 09:13:00 AM 26.0667 -80.1500 103° East  Level FlightAware Approximate
Thu 09:20:00 AM 26.0726 -80.1527 103° East  Level Estimated

Login

Don't have an account? Register now (free) for customized features, flight alerts, and more!